Clear but hazy
Partly cloudy
Partly cloudy
Partly cloudy
Clear with few low clouds
Partly cloudy
Partly cloudy and few cirrus
Partly cloudy and few cirrus
Partly cloudy and cirrus
(°F)
57°
57°
60°
60°
62°
62°
64°
64°
65°
65°
66°
66°
68°
68°
71°
71°
74°
74°
(°F)
58°
60°
62°
64°
66°
69°
71°
74°
75°
SSW
WSW
ENE
WNW
SE
SSE
SSW
SSW
SSW
(mph)
3-6
4-6
4-8
4-7
3-5
2-4
2-5
2-8
3-10
(in)
0
0
0
0
0
0
0
0
0
(%)
0
5
0
0
0
0
0
0
10

Sun elevation

/ 10.3°
sun-icon
UV 6
05:07
21:10
First quarter moon (96°)
14:18
00:05

METAR for Václav Havel Airport Prague (LKPR)

Time Conditions Temperature/
Dewpoint
Wind Visibility Weather Clouds Pressure Change Raw
VFR 57.2°F / 57.2°F 200º variable 140º to 230º 5kt 9700m - Clouds and Visibility OK 1014 No Significant change LKPR 140400Z 20005KT 140V230 CAVOK 14/14 Q1014 NOSIG
VFR 55.4°F / 55.4°F 190º variable 140º to 220º 5kt 9700m - Clouds and Visibility OK 1015 No Significant change LKPR 140330Z 19005KT 140V220 CAVOK 13/13 Q1015 NOSIG
VFR 57.2°F / 55.4°F 200º variable 150º to 230º 5kt 9700m - Clouds and Visibility OK 1014 No Significant change LKPR 140300Z 20005KT 150V230 CAVOK 14/13 Q1014 NOSIG
VFR 57.2°F / 57.2°F 200º variable 160º to 230º 6kt 9700m - Clouds and Visibility OK 1014 No Significant change LKPR 140230Z 20006KT 160V230 CAVOK 14/14 Q1014 NOSIG
VFR 57.2°F / 57.2°F 200º 6kt 9700m - Clouds and Visibility OK 1014 No Significant change LKPR 140200Z 20006KT CAVOK 14/14 Q1014 NOSIG
VFR 57.2°F / 57.2°F 210º 6kt 9700m - Clouds and Visibility OK 1014 No Significant change LKPR 140130Z 21006KT CAVOK 14/14 Q1014 NOSIG
VFR 57.2°F / 57.2°F 190º 6kt 9700m - Clouds and Visibility OK 1014 No Significant change LKPR 140100Z 19006KT CAVOK 14/14 Q1014 NOSIG
VFR 59°F / 57.2°F 220º 7kt 9700m - Clouds and Visibility OK 1014 No Significant change LKPR 140030Z 22007KT CAVOK 15/14 Q1014 NOSIG
VFR 59°F / 57.2°F 210º 6kt 9700m - Clouds and Visibility OK 1014 No Significant change LKPR 140000Z 21006KT CAVOK 15/14 Q1014 NOSIG
VFR 59°F / 57.2°F 180º 7kt 9700m - Clouds and Visibility OK 1015 No Significant change LKPR 132330Z 18007KT CAVOK 15/14 Q1015 NOSIG
VFR 60.8°F / 59°F 180º 7kt 9700m - Clouds and Visibility OK 1015 No Significant change LKPR 132300Z 18007KT CAVOK 16/15 Q1015 NOSIG
VFR 60.8°F / 59°F 150º 5kt 9700m - Clouds and Visibility OK 1014 No Significant change LKPR 132230Z 15005KT CAVOK 16/15 Q1014 NOSIG
VFR 60.8°F / 59°F 130º 5kt 9700m - Clouds and Visibility OK 1014 No Significant change LKPR 132200Z 13005KT CAVOK 16/15 Q1014 NOSIG
VFR 59°F / 57.2°F 150º 5kt 9700m - Few Clouds 1200ft 1014 No Significant change LKPR 132130Z 15005KT 9999 FEW012 15/14 Q1014 NOSIG
IFR 59°F / 57.2°F 140º 7kt 4000m Heavy Showers Rain 3.00mm precipitation Few Clouds 1500ft
Scattered Clouds 2300ft
1014 Becoming: Visibility 9999. NSW Scattered Clouds 3000ft. LKPR 132100Z 14007KT 4000 +SHRA FEW015 SCT023CB 15/14 Q1014 BECMG 9999 NSW SCT030
VFR 64.4°F / 57.2°F 260º 6kt 9000m Showers Rain 3.00mm precipitation Few Clouds 2300ft 1014 No Significant change LKPR 132030Z 26006KT 9000 SHRA FEW023CB 18/14 Q1014 NOSIG
VFR 66.2°F / 55.4°F 280º 5kt 9700m Light Showers Rain 3.00mm precipitation Few Clouds 4300ft 1014 Temporary: Showers Rain . LKPR 132000Z 28005KT 9999 -SHRA FEW043CB 19/13 Q1014 TEMPO SHRA
VFR 68°F / 53.6°F 320º variable 280º to 340º 5kt 9700m - Few Clouds 4500ft 1014 Temporary: Showers Rain . LKPR 131930Z 32005KT 280V340 9999 FEW045TCU 20/12 Q1014 TEMPO SHRA
VFR 68°F / 53.6°F 350º 4kt 9700m - Clouds and Visibility OK 1014 No Significant change LKPR 131900Z 35004KT CAVOK 20/12 Q1014 NOSIG
VFR 69.8°F / 53.6°F 330º 5kt 9700m - Clouds and Visibility OK 1013 No Significant change LKPR 131830Z 33005KT CAVOK 21/12 Q1013 NOSIG
VFR 71.6°F / 53.6°F 320º 7kt 9700m - Clouds and Visibility OK 1013 No Significant change LKPR 131800Z 32007KT CAVOK 22/12 Q1013 NOSIG
VFR 73.4°F / 51.8°F 300º 6kt 9700m - Clouds and Visibility OK 1013 No Significant change LKPR 131730Z 30006KT CAVOK 23/11 Q1013 NOSIG
VFR 73.4°F / 53.6°F 300º 7kt 9700m - Clouds and Visibility OK 1013 No Significant change LKPR 131700Z 30007KT CAVOK 23/12 Q1013 NOSIG
VFR 75.2°F / 51.8°F 300º 7kt 9700m - Clouds and Visibility OK 1013 No Significant change LKPR 131630Z 30007KT CAVOK 24/11 Q1013 NOSIG

VFR

57.2°F / 57.2°F

[More]
Wind 200º variable 140º to 230º 5kt
Visibility 9700m
Weather -
Clouds Clouds and Visibility OK
Pressure 1014
Change No Significant change
Raw LKPR 140400Z 20005KT 140V230 CAVOK 14/14 Q1014 NOSIG

VFR

55.4°F / 55.4°F

[More]
Wind 190º variable 140º to 220º 5kt
Visibility 9700m
Weather -
Clouds Clouds and Visibility OK
Pressure 1015
Change No Significant change
Raw LKPR 140330Z 19005KT 140V220 CAVOK 13/13 Q1015 NOSIG

VFR

57.2°F / 55.4°F

[More]
Wind 200º variable 150º to 230º 5kt
Visibility 9700m
Weather -
Clouds Clouds and Visibility OK
Pressure 1014
Change No Significant change
Raw LKPR 140300Z 20005KT 150V230 CAVOK 14/13 Q1014 NOSIG

VFR

57.2°F / 57.2°F

[More]
Wind 200º variable 160º to 230º 6kt
Visibility 9700m
Weather -
Clouds Clouds and Visibility OK
Pressure 1014
Change No Significant change
Raw LKPR 140230Z 20006KT 160V230 CAVOK 14/14 Q1014 NOSIG

VFR

57.2°F / 57.2°F

[More]
Wind 200º 6kt
Visibility 9700m
Weather -
Clouds Clouds and Visibility OK
Pressure 1014
Change No Significant change
Raw LKPR 140200Z 20006KT CAVOK 14/14 Q1014 NOSIG

VFR

57.2°F / 57.2°F

[More]
Wind 210º 6kt
Visibility 9700m
Weather -
Clouds Clouds and Visibility OK
Pressure 1014
Change No Significant change
Raw LKPR 140130Z 21006KT CAVOK 14/14 Q1014 NOSIG

VFR

57.2°F / 57.2°F

[More]
Wind 190º 6kt
Visibility 9700m
Weather -
Clouds Clouds and Visibility OK
Pressure 1014
Change No Significant change
Raw LKPR 140100Z 19006KT CAVOK 14/14 Q1014 NOSIG

VFR

59°F / 57.2°F

[More]
Wind 220º 7kt
Visibility 9700m
Weather -
Clouds Clouds and Visibility OK
Pressure 1014
Change No Significant change
Raw LKPR 140030Z 22007KT CAVOK 15/14 Q1014 NOSIG

VFR

59°F / 57.2°F

[More]
Wind 210º 6kt
Visibility 9700m
Weather -
Clouds Clouds and Visibility OK
Pressure 1014
Change No Significant change
Raw LKPR 140000Z 21006KT CAVOK 15/14 Q1014 NOSIG

VFR

59°F / 57.2°F

[More]
Wind 180º 7kt
Visibility 9700m
Weather -
Clouds Clouds and Visibility OK
Pressure 1015
Change No Significant change
Raw LKPR 132330Z 18007KT CAVOK 15/14 Q1015 NOSIG

VFR

60.8°F / 59°F

[More]
Wind 180º 7kt
Visibility 9700m
Weather -
Clouds Clouds and Visibility OK
Pressure 1015
Change No Significant change
Raw LKPR 132300Z 18007KT CAVOK 16/15 Q1015 NOSIG

VFR

60.8°F / 59°F

[More]
Wind 150º 5kt
Visibility 9700m
Weather -
Clouds Clouds and Visibility OK
Pressure 1014
Change No Significant change
Raw LKPR 132230Z 15005KT CAVOK 16/15 Q1014 NOSIG

VFR

60.8°F / 59°F

[More]
Wind 130º 5kt
Visibility 9700m
Weather -
Clouds Clouds and Visibility OK
Pressure 1014
Change No Significant change
Raw LKPR 132200Z 13005KT CAVOK 16/15 Q1014 NOSIG

VFR

59°F / 57.2°F

[More]
Wind 150º 5kt
Visibility 9700m
Weather -
Clouds Few Clouds 1200ft
Pressure 1014
Change No Significant change
Raw LKPR 132130Z 15005KT 9999 FEW012 15/14 Q1014 NOSIG

IFR

59°F / 57.2°F

[More]
Wind 140º 7kt
Visibility 4000m
Weather Heavy Showers Rain 3.00mm precipitation
Clouds Few Clouds 1500ft
Scattered Clouds 2300ft
Pressure 1014
Change Becoming: Visibility 9999. NSW Scattered Clouds 3000ft.
Raw LKPR 132100Z 14007KT 4000 +SHRA FEW015 SCT023CB 15/14 Q1014 BECMG 9999 NSW SCT030

VFR

64.4°F / 57.2°F

[More]
Wind 260º 6kt
Visibility 9000m
Weather Showers Rain 3.00mm precipitation
Clouds Few Clouds 2300ft
Pressure 1014
Change No Significant change
Raw LKPR 132030Z 26006KT 9000 SHRA FEW023CB 18/14 Q1014 NOSIG

VFR

66.2°F / 55.4°F

[More]
Wind 280º 5kt
Visibility 9700m
Weather Light Showers Rain 3.00mm precipitation
Clouds Few Clouds 4300ft
Pressure 1014
Change Temporary: Showers Rain .
Raw LKPR 132000Z 28005KT 9999 -SHRA FEW043CB 19/13 Q1014 TEMPO SHRA

VFR

68°F / 53.6°F

[More]
Wind 320º variable 280º to 340º 5kt
Visibility 9700m
Weather -
Clouds Few Clouds 4500ft
Pressure 1014
Change Temporary: Showers Rain .
Raw LKPR 131930Z 32005KT 280V340 9999 FEW045TCU 20/12 Q1014 TEMPO SHRA

VFR

68°F / 53.6°F

[More]
Wind 350º 4kt
Visibility 9700m
Weather -
Clouds Clouds and Visibility OK
Pressure 1014
Change No Significant change
Raw LKPR 131900Z 35004KT CAVOK 20/12 Q1014 NOSIG

VFR

69.8°F / 53.6°F

[More]
Wind 330º 5kt
Visibility 9700m
Weather -
Clouds Clouds and Visibility OK
Pressure 1013
Change No Significant change
Raw LKPR 131830Z 33005KT CAVOK 21/12 Q1013 NOSIG

VFR

71.6°F / 53.6°F

[More]
Wind 320º 7kt
Visibility 9700m
Weather -
Clouds Clouds and Visibility OK
Pressure 1013
Change No Significant change
Raw LKPR 131800Z 32007KT CAVOK 22/12 Q1013 NOSIG

VFR

73.4°F / 51.8°F

[More]
Wind 300º 6kt
Visibility 9700m
Weather -
Clouds Clouds and Visibility OK
Pressure 1013
Change No Significant change
Raw LKPR 131730Z 30006KT CAVOK 23/11 Q1013 NOSIG

VFR

73.4°F / 53.6°F

[More]
Wind 300º 7kt
Visibility 9700m
Weather -
Clouds Clouds and Visibility OK
Pressure 1013
Change No Significant change
Raw LKPR 131700Z 30007KT CAVOK 23/12 Q1013 NOSIG

VFR

75.2°F / 51.8°F

[More]
Wind 300º 7kt
Visibility 9700m
Weather -
Clouds Clouds and Visibility OK
Pressure 1013
Change No Significant change
Raw LKPR 131630Z 30007KT CAVOK 24/11 Q1013 NOSIG

TAF for Václav Havel Airport Prague (LKPR)

From till


From till Wind 200º 5kt. Visibility 9700m. Nil Significant Cloud.
With 30% probability, Temporarly from till Visibility 5000m. Mist . Scattered Clouds 700ft.
Temporarly from till Wind 330º 4kt.
Becoming from till
Becoming from till

Raw: TAF LKPR 140200Z 1403/1509 20005KT CAVOK PROB30 TEMPO 1403/1405 5000 BR SCT007 TEMPO 1403/1423 33004KT BECMG 1423/1501 VRB02KT BECMG 1507/1509 15006KT

Radar and precipitation nowcast for Václav Havel Airport Prague

Drizzle
Light
Moderate
Heavy
Very Heavy
Hail

The location marker is placed on Václav Havel Airport Prague. This animation shows the precipitation radar for the selected time range, as well as a 2h forecast. Orange crosses indicate lightning. Data provided by nowcast.de (available in USA, Europe, Australia). Drizzle or light snow fall might be invisible for the radar. Precipitation intensity is colour coded, ranging from turquoise to red.

Current satellite and rain images for Václav Havel Airport Prague, Czechia

The location marker is placed on Václav Havel Airport Prague. [More]

The real-time satellite image combines visible light during daytime with infrared radiation during nighttime. At night, the image is not dark as infrared radiation can detect temperature differences. Unfortunately, low clouds and fog are difficult to distinguish from ground temperatures and thus can be almost invisible during the night. Meteosat satellite images for Europe are updated in real-time every 5 minutes. GOES-16/GOES-17 (North & South America) and Himawari (Asia) images update every 10 minutes.

Precipitation is estimated from radar and satellites. Precipitation estimates from satellites are less accurate at night than during daytime.

© 2024 meteoblue, NOAA Satellites GOES-16 and EUMETSAT. Lightning data provided by nowcast.

Back to top
×
Hey there,
seems like you are using an ad blocker.

Advertising is essential to maintain our free website with unique detail and accuracy.

Please whitelist www.meteoblue.com on your ad blocker or consider buying one of our products:

Already have a subscription?
Then please login.